Time;durP1;ratioP1;P1;durP2;ratioP2;P2;SDS_P1;SDS_P2;PMS_P1;PMS_P2;Temp;Humidity;BMP_temperature;BMP_pressure;BME280_temperature;BME280_humidity;BME280_pressure;Samples;Min_cycle;Max_cycle;Signal;HPM_P1;HPM_P2
2022/12/01 00:02:24;;;;;;;22.88;15.77;;;1.60;99.90;;;;;;5005150;28;20178;-74
2022/12/01 00:04:50;;;;;;;22.52;15.35;;;1.60;99.90;;;;;;5004039;28;20205;-73
2022/12/01 00:07:15;;;;;;;24.10;16.50;;;1.60;99.90;;;;;;5003189;28;20218;-76
2022/12/01 00:12:25;;;;;;;22.55;16.13;;;1.70;99.90;;;;;;4995018;28;20240;-73
2022/12/01 00:14:59;;;;;;;21.63;15.23;;;1.80;99.90;;;;;;4994702;28;20189;-74
2022/12/01 00:17:29;;;;;;;22.17;16.42;;;1.80;99.90;;;;;;4993786;28;20189;-74
2022/12/01 00:19:55;;;;;;;21.80;14.95;;;1.80;99.90;;;;;;4993544;28;20178;-74
2022/12/01 00:22:21;;;;;;;24.77;16.90;;;1.80;99.90;;;;;;4995028;28;20649;-74
2022/12/01 00:24:46;;;;;;;22.40;16.15;;;1.80;99.90;;;;;;4992953;28;20256;-74
2022/12/01 00:27:12;;;;;;;22.48;15.73;;;1.90;99.90;;;;;;4995079;28;20230;-77
2022/12/01 00:29:37;;;;;;;22.08;15.95;;;1.90;99.90;;;;;;4988102;28;20178;-74
2022/12/01 00:32:03;;;;;;;23.33;16.38;;;1.90;99.90;;;;;;4994494;28;20213;-74
2022/12/01 00:34:29;;;;;;;23.20;17.05;;;2.00;99.90;;;;;;4995285;28;20182;-74
2022/12/01 00:36:54;;;;;;;20.50;15.40;;;1.90;99.90;;;;;;4996315;28;20664;-74
2022/12/01 00:39:20;;;;;;;21.88;15.95;;;1.90;99.90;;;;;;4991236;28;20182;-74
2022/12/01 00:41:46;;;;;;;23.95;16.70;;;1.90;99.90;;;;;;4995316;28;20224;-74
2022/12/01 00:44:11;;;;;;;22.02;15.57;;;1.80;99.90;;;;;;4994146;28;20256;-74
2022/12/01 00:46:37;;;;;;;23.35;16.25;;;1.80;99.90;;;;;;4994560;28;20220;-74
2022/12/01 00:49:02;;;;;;;22.90;16.33;;;1.60;99.90;;;;;;4989121;28;20253;-74
2022/12/01 00:51:28;;;;;;;24.10;15.90;;;1.60;99.90;;;;;;4993721;28;20649;-73
2022/12/01 00:53:54;;;;;;;20.63;15.35;;;1.60;99.90;;;;;;4996236;28;20699;-73
2022/12/01 00:56:20;;;;;;;23.40;17.00;;;1.50;99.90;;;;;;4997627;28;20198;-74
2022/12/01 00:58:45;;;;;;;21.45;15.65;;;1.50;99.90;;;;;;4997071;28;20264;-74
2022/12/01 01:01:11;;;;;;;21.70;15.80;;;1.50;99.90;;;;;;4994465;28;20527;-77
2022/12/01 01:03:37;;;;;;;22.52;15.68;;;1.50;99.90;;;;;;4992614;28;20681;-74
2022/12/01 01:06:08;;;;;;;22.98;16.60;;;1.50;99.90;;;;;;4994356;28;20277;-73
2022/12/01 01:08:34;;;;;;;21.77;15.70;;;1.40;99.90;;;;;;4994027;28;20177;-75
2022/12/01 01:11:00;;;;;;;21.65;15.75;;;1.40;99.90;;;;;;4994756;28;20556;-75
2022/12/01 01:13:26;;;;;;;24.05;15.25;;;1.50;99.90;;;;;;4995618;28;20217;-76
2022/12/01 01:16:01;;;;;;;24.63;17.13;;;1.50;99.90;;;;;;4992443;28;20197;-74
2022/12/01 01:18:27;;;;;;;21.52;15.20;;;1.60;99.90;;;;;;4994104;28;20548;-73
2022/12/01 01:21:01;;;;;;;20.63;15.40;;;1.60;99.90;;;;;;4995821;28;20194;-73
2022/12/01 01:23:27;;;;;;;23.45;16.40;;;1.60;99.90;;;;;;4992821;28;20204;-74
2022/12/01 01:25:52;;;;;;;22.75;16.50;;;1.60;99.90;;;;;;4999824;28;20197;-75
2022/12/01 01:28:18;;;;;;;21.27;15.65;;;1.50;99.90;;;;;;4996319;28;20210;-76
2022/12/01 01:30:45;;;;;;;24.20;16.08;;;1.50;99.90;;;;;;4993252;28;20257;-74
2022/12/01 01:33:10;;;;;;;21.35;15.90;;;1.50;99.90;;;;;;4991245;28;20186;-74
2022/12/01 01:35:36;;;;;;;22.33;16.23;;;1.40;99.90;;;;;;4995812;28;20228;-76
2022/12/01 01:38:02;;;;;;;20.77;15.52;;;1.40;99.90;;;;;;5006229;28;20177;-73
2022/12/01 01:40:27;;;;;;;23.80;17.48;;;1.50;99.90;;;;;;4994127;28;20597;-74
2022/12/01 01:42:53;;;;;;;23.98;16.20;;;1.50;99.90;;;;;;4988898;28;20248;-74
2022/12/01 01:45:22;;;;;;;24.02;15.60;;;1.50;99.90;;;;;;4994248;28;20202;-74
2022/12/01 01:47:50;;;;;;;23.00;17.13;;;1.50;99.90;;;;;;4993498;28;20216;-74
2022/12/01 01:50:19;;;;;;;23.00;16.50;;;1.60;99.90;;;;;;4996172;28;20208;-73
2022/12/01 01:52:49;;;;;;;24.98;16.88;;;1.60;99.90;;;;;;4985119;28;20170;-76
2022/12/01 01:55:15;;;;;;;22.10;16.70;;;1.50;99.90;;;;;;4993916;28;20177;-73
2022/12/01 01:57:42;;;;;;;25.55;19.00;;;1.50;99.90;;;;;;4992779;28;20189;-75
2022/12/01 02:00:11;;;;;;;23.05;16.33;;;1.60;99.90;;;;;;4991671;28;20598;-74
2022/12/01 02:02:39;;;;;;;21.10;15.73;;;1.60;99.90;;;;;;4993227;28;20256;-73
2022/12/01 02:05:09;;;;;;;22.42;16.30;;;1.70;99.90;;;;;;4988823;28;20241;-73
2022/12/01 02:07:39;;;;;;;21.45;15.80;;;1.70;99.90;;;;;;4991612;28;20181;-74
2022/12/01 02:10:07;;;;;;;25.88;16.80;;;1.70;99.90;;;;;;4994176;28;20170;-76
2022/12/01 02:13:10;;;;;;;25.40;16.30;;;1.70;99.90;;;;;;4998244;28;20174;-76
2022/12/01 02:15:58;;;;;;;22.83;16.67;;;1.60;99.90;;;;;;4996150;28;20263;-73
2022/12/01 02:18:41;;;;;;;24.30;16.70;;;1.60;99.90;;;;;;4996876;28;20186;-73
2022/12/01 02:21:13;;;;;;;25.08;16.83;;;1.40;99.90;;;;;;4993819;28;20719;-73
2022/12/01 02:24:05;;;;;;;20.50;15.30;;;1.40;99.90;;;;;;4991014;28;20193;-73
2022/12/01 02:26:49;;;;;;;20.02;14.02;;;1.30;99.90;;;;;;4997545;28;20197;-73
2022/12/01 02:29:36;;;;;;;20.15;15.02;;;1.30;99.90;;;;;;4991619;28;20536;-73
2022/12/01 02:32:09;;;;;;;23.45;16.13;;;1.20;99.90;;;;;;4993707;28;20174;-73
2022/12/01 02:34:49;;;;;;;23.83;16.55;;;1.20;99.90;;;;;;5002083;28;20182;-74
2022/12/01 02:37:34;;;;;;;24.67;15.18;;;1.10;99.90;;;;;;4998059;28;20669;-74
2022/12/01 02:40:09;;;;;;;23.83;16.47;;;1.00;99.90;;;;;;4990221;28;20182;-76
2022/12/01 02:42:48;;;;;;;24.70;16.05;;;1.00;99.90;;;;;;5000964;28;20246;-76
2022/12/01 02:45:22;;;;;;;26.30;17.47;;;0.90;99.90;;;;;;4994254;28;20209;-76
2022/12/01 02:47:51;;;;;;;22.02;16.23;;;0.90;99.90;;;;;;4998322;28;20185;-73
2022/12/01 02:50:18;;;;;;;23.67;17.93;;;0.90;99.90;;;;;;4989756;28;20205;-74
2022/12/01 02:52:44;;;;;;;24.53;15.33;;;0.90;99.90;;;;;;4991831;28;20253;-73
2022/12/01 02:55:12;;;;;;;25.43;17.20;;;0.90;99.90;;;;;;4995175;28;20835;-73
2022/12/01 02:57:37;;;;;;;22.03;16.13;;;0.90;99.90;;;;;;4992092;28;20177;-73
2022/12/01 03:00:05;;;;;;;25.17;16.58;;;0.80;99.90;;;;;;4996482;28;20181;-74
2022/12/01 03:02:31;;;;;;;25.70;17.20;;;0.80;99.90;;;;;;4994511;28;20261;-74
2022/12/01 03:05:06;;;;;;;24.15;16.85;;;0.90;99.90;;;;;;4996358;28;20295;-73
2022/12/01 03:07:54;;;;;;;26.27;17.43;;;0.80;99.90;;;;;;4991638;28;20178;-73
2022/12/01 03:10:36;;;;;;;26.53;17.40;;;0.70;99.90;;;;;;4983319;28;20253;-72
2022/12/01 03:13:22;;;;;;;26.17;17.37;;;0.70;99.90;;;;;;4996784;28;20177;-73
2022/12/01 03:16:01;;;;;;;26.87;18.73;;;0.70;99.90;;;;;;4988906;28;20201;-73
2022/12/01 03:18:46;;;;;;;28.37;18.90;;;0.80;99.90;;;;;;4994099;28;20184;-73
2022/12/01 03:21:31;;;;;;;28.33;18.07;;;1.00;99.90;;;;;;4992007;28;20213;-73
2022/12/01 03:24:05;;;;;;;26.63;18.05;;;1.00;99.90;;;;;;4981476;28;20202;-74
2022/12/01 03:26:34;;;;;;;24.50;17.30;;;1.10;99.90;;;;;;4985156;28;20204;-73
2022/12/01 03:29:05;;;;;;;30.90;18.63;;;1.20;99.90;;;;;;4997244;28;20642;-74
2022/12/01 03:31:34;;;;;;;27.63;18.77;;;1.20;99.90;;;;;;4993192;28;20208;-73
2022/12/01 03:34:06;;;;;;;27.27;18.43;;;1.20;99.90;;;;;;4994753;28;20178;-73
2022/12/01 03:36:46;;;;;;;29.27;18.52;;;1.30;99.90;;;;;;5006857;28;20225;-73
2022/12/01 03:39:15;;;;;;;26.00;17.42;;;1.30;99.90;;;;;;4999632;28;20173;-73
2022/12/01 03:41:50;;;;;;;28.50;18.98;;;1.40;99.90;;;;;;4991218;28;20182;-74
2022/12/01 03:44:21;;;;;;;27.10;18.50;;;1.40;99.90;;;;;;4996039;28;20232;-73
2022/12/01 03:46:56;;;;;;;26.35;18.35;;;1.50;99.90;;;;;;4988291;28;20203;-73
2022/12/01 03:49:24;;;;;;;24.63;17.08;;;1.50;99.90;;;;;;4993893;28;20174;-74
2022/12/01 03:52:20;;;;;;;26.77;18.23;;;1.60;99.90;;;;;;4989234;28;20708;-73
2022/12/01 03:54:52;;;;;;;24.17;16.27;;;1.60;99.90;;;;;;4984267;28;20671;-76
2022/12/01 03:57:27;;;;;;;25.05;16.83;;;1.70;99.90;;;;;;4991078;28;20224;-74
2022/12/01 03:59:53;;;;;;;28.13;17.98;;;1.80;99.90;;;;;;4989421;28;20184;-74
2022/12/01 04:02:19;;;;;;;24.23;17.08;;;1.70;99.90;;;;;;4994566;28;20673;-73
2022/12/01 04:04:44;;;;;;;22.33;16.33;;;1.80;99.90;;;;;;4992184;28;20244;-74
2022/12/01 04:07:13;;;;;;;25.00;18.35;;;1.80;99.90;;;;;;4995127;28;20207;-74
2022/12/01 04:09:40;;;;;;;25.48;16.77;;;1.80;99.90;;;;;;4990117;28;20552;-74
2022/12/01 04:14:50;;;;;;;22.30;15.98;;;1.70;99.90;;;;;;4998589;28;20566;-76
2022/12/01 04:17:16;;;;;;;26.90;18.55;;;1.70;99.90;;;;;;4994222;28;20224;-74
2022/12/01 04:19:42;;;;;;;24.48;16.27;;;1.70;99.90;;;;;;4993914;28;20648;-75
2022/12/01 04:22:07;;;;;;;26.65;17.90;;;1.70;99.90;;;;;;4993092;28;20190;-76
2022/12/01 04:24:33;;;;;;;22.45;16.88;;;1.60;99.90;;;;;;4993094;28;20261;-75
2022/12/01 04:26:58;;;;;;;25.88;17.33;;;1.50;99.90;;;;;;4988286;28;20255;-73
2022/12/01 04:29:24;;;;;;;26.33;18.85;;;1.50;99.90;;;;;;4986998;28;20641;-75
2022/12/01 04:31:49;;;;;;;25.50;16.75;;;1.40;99.90;;;;;;4995024;28;20201;-74
2022/12/01 04:34:15;;;;;;;26.90;17.02;;;1.40;99.90;;;;;;4991112;28;20193;-75
2022/12/01 04:36:41;;;;;;;25.40;16.85;;;1.40;99.90;;;;;;4990550;28;20193;-74
2022/12/01 04:39:06;;;;;;;26.98;18.42;;;1.40;99.90;;;;;;4995651;28;20190;-73
2022/12/01 04:41:33;;;;;;;26.58;17.58;;;1.40;99.90;;;;;;4987206;28;20210;-74
2022/12/01 04:43:58;;;;;;;23.75;15.98;;;1.30;99.90;;;;;;4991686;28;20210;-73
2022/12/01 04:46:24;;;;;;;25.42;17.27;;;1.30;99.90;;;;;;4986928;28;20351;-76
2022/12/01 04:48:50;;;;;;;25.85;17.48;;;1.20;99.90;;;;;;4990603;28;20181;-76
2022/12/01 04:51:16;;;;;;;26.15;17.70;;;1.20;99.90;;;;;;4989807;28;20178;-75
2022/12/01 04:53:42;;;;;;;22.40;17.13;;;1.10;99.90;;;;;;4987805;28;20173;-77
2022/12/01 04:56:07;;;;;;;28.10;17.60;;;1.00;99.90;;;;;;4985398;28;20686;-73
2022/12/01 04:58:36;;;;;;;25.25;17.38;;;1.00;99.90;;;;;;4986045;28;20178;-73
2022/12/01 05:01:07;;;;;;;25.80;17.35;;;0.90;99.90;;;;;;4990329;28;20276;-75
2022/12/01 05:03:38;;;;;;;28.40;17.60;;;0.90;99.90;;;;;;4986563;28;20736;-74
2022/12/01 05:06:10;;;;;;;22.73;16.90;;;0.90;99.90;;;;;;4991094;28;20198;-74
2022/12/01 05:08:36;;;;;;;26.23;17.83;;;0.80;99.90;;;;;;4982896;28;20249;-73
2022/12/01 05:11:02;;;;;;;30.70;18.80;;;0.80;99.90;;;;;;4996720;28;20258;-73
2022/12/01 05:13:28;;;;;;;28.97;18.63;;;0.70;99.90;;;;;;4995285;28;20190;-74
2022/12/01 05:16:02;;;;;;;26.37;18.57;;;0.70;99.90;;;;;;4992690;28;20205;-76
2022/12/01 05:18:28;;;;;;;32.13;19.70;;;0.70;99.90;;;;;;4993262;28;20220;-74
2022/12/01 05:20:56;;;;;;;27.17;18.10;;;0.70;99.90;;;;;;4994058;28;20206;-74
2022/12/01 05:23:33;;;;;;;28.40;18.70;;;0.70;99.90;;;;;;5000029;28;20205;-74
2022/12/01 05:25:59;;;;;;;26.00;19.17;;;0.70;99.90;;;;;;4991171;28;20193;-74
2022/12/01 05:28:26;;;;;;;27.30;17.57;;;0.70;99.90;;;;;;5002954;28;20548;-73
2022/12/01 05:30:52;;;;;;;30.23;18.87;;;0.70;99.90;;;;;;4992005;28;20210;-73
2022/12/01 05:33:17;;;;;;;28.70;19.07;;;0.70;99.90;;;;;;4979770;28;20190;-74
2022/12/01 05:35:43;;;;;;;29.30;17.27;;;0.60;99.90;;;;;;4982340;28;20206;-73
2022/12/01 05:38:09;;;;;;;29.27;19.10;;;0.60;99.90;;;;;;4992345;28;20560;-74
2022/12/01 05:40:35;;;;;;;30.27;19.67;;;0.60;99.90;;;;;;4989086;28;20178;-73
2022/12/01 05:43:01;;;;;;;27.57;18.30;;;0.60;99.90;;;;;;4995996;28;20194;-73
2022/12/01 05:45:27;;;;;;;35.27;19.70;;;0.60;99.90;;;;;;4988884;28;20203;-73
2022/12/01 05:47:56;;;;;;;24.73;17.87;;;0.60;99.90;;;;;;4992101;28;20675;-72
2022/12/01 05:50:23;;;;;;;28.63;18.97;;;0.60;99.90;;;;;;4985854;28;20188;-73
2022/12/01 05:52:48;;;;;;;27.03;18.27;;;0.60;99.90;;;;;;4986314;28;20659;-73
2022/12/01 05:55:14;;;;;;;29.27;19.47;;;0.60;99.90;;;;;;4986797;28;20181;-73
2022/12/01 05:57:40;;;;;;;26.80;18.90;;;0.60;99.90;;;;;;4989740;28;20313;-73
2022/12/01 06:00:06;;;;;;;29.03;19.23;;;0.50;99.90;;;;;;4981584;28;20533;-73
2022/12/01 06:02:32;;;;;;;30.43;20.20;;;0.60;99.90;;;;;;4987940;28;20181;-73
2022/12/01 06:04:57;;;;;;;29.77;18.17;;;0.60;99.90;;;;;;4990531;28;20193;-73
2022/12/01 06:07:24;;;;;;;35.93;21.77;;;0.60;99.90;;;;;;4992398;28;20572;-74
2022/12/01 06:09:51;;;;;;;31.33;20.13;;;0.70;99.90;;;;;;4990125;28;20660;-75
2022/12/01 06:12:16;;;;;;;35.53;21.00;;;0.70;99.90;;;;;;4989378;28;20232;-73
2022/12/01 06:14:42;;;;;;;34.07;19.67;;;0.70;99.90;;;;;;4992456;28;20181;-74
2022/12/01 06:17:08;;;;;;;30.37;20.13;;;0.70;99.90;;;;;;4994085;28;20222;-74
2022/12/01 06:19:33;;;;;;;33.53;21.43;;;0.70;99.90;;;;;;4993502;28;20560;-75
2022/12/01 06:21:59;;;;;;;33.57;20.63;;;0.70;99.90;;;;;;4992594;28;20187;-74
2022/12/01 06:24:24;;;;;;;29.47;19.37;;;0.70;99.90;;;;;;4995416;28;20202;-75
2022/12/01 06:26:50;;;;;;;33.63;20.30;;;0.80;99.90;;;;;;4992081;28;20742;-73
2022/12/01 06:29:16;;;;;;;26.87;18.83;;;0.80;99.90;;;;;;4992432;28;20182;-75
2022/12/01 06:31:41;;;;;;;27.90;19.80;;;0.80;99.90;;;;;;4994424;28;20249;-75
2022/12/01 06:34:07;;;;;;;27.75;18.77;;;0.80;99.90;;;;;;4995155;28;20185;-75
2022/12/01 06:36:33;;;;;;;31.67;19.70;;;0.80;99.90;;;;;;4987015;28;20417;-75
2022/12/01 06:38:59;;;;;;;30.97;20.50;;;0.80;99.90;;;;;;4996074;28;20178;-75
2022/12/01 06:41:24;;;;;;;27.53;20.13;;;0.80;99.90;;;;;;5003060;28;20179;-75
2022/12/01 06:43:50;;;;;;;29.20;18.97;;;0.90;99.90;;;;;;4999135;28;20577;-73
2022/12/01 06:46:15;;;;;;;27.97;19.60;;;0.90;99.90;;;;;;4999399;28;20490;-75
2022/12/01 06:48:41;;;;;;;33.70;19.77;;;1.00;99.90;;;;;;4991931;28;20530;-76
2022/12/01 06:51:07;;;;;;;31.67;20.50;;;1.00;99.90;;;;;;4989866;28;20572;-74
2022/12/01 06:53:32;;;;;;;32.88;20.30;;;1.00;99.90;;;;;;4981229;28;20253;-74
2022/12/01 06:56:03;;;;;;;28.53;19.13;;;1.00;99.90;;;;;;4990112;28;20201;-74
2022/12/01 06:58:29;;;;;;;26.42;18.23;;;1.10;99.90;;;;;;4993864;28;20412;-74
2022/12/01 07:00:57;;;;;;;29.45;19.45;;;1.20;99.90;;;;;;4994330;28;20174;-74
2022/12/01 07:03:23;;;;;;;36.47;19.33;;;1.30;99.90;;;;;;5000952;28;20182;-74
2022/12/01 07:05:57;;;;;;;28.35;19.20;;;1.30;99.90;;;;;;4992524;28;20197;-78
2022/12/01 07:08:23;;;;;;;29.20;20.13;;;1.50;99.90;;;;;;4997129;28;20177;-79
2022/12/01 07:11:02;;;;;;;24.77;18.55;;;1.50;99.90;;;;;;4991896;28;20522;-79
2022/12/01 07:13:28;;;;;;;28.42;19.08;;;1.50;99.90;;;;;;4994726;28;20270;-78
2022/12/01 07:15:54;;;;;;;25.00;17.95;;;1.50;99.90;;;;;;4994696;28;20267;-78
2022/12/01 07:18:19;;;;;;;30.05;18.73;;;1.70;99.90;;;;;;4991330;28;20630;-79
2022/12/01 07:20:45;;;;;;;29.52;18.95;;;1.70;99.90;;;;;;4994801;28;20184;-78
2022/12/01 07:23:10;;;;;;;25.60;18.02;;;1.80;99.90;;;;;;4993173;28;20592;-79
2022/12/01 07:25:36;;;;;;;23.95;16.52;;;1.80;99.90;;;;;;4991809;28;20286;-79
2022/12/01 07:28:02;;;;;;;26.17;17.98;;;1.90;99.90;;;;;;4995402;28;20178;-79
2022/12/01 07:30:27;;;;;;;26.17;18.88;;;2.00;99.90;;;;;;4993782;28;20173;-79
2022/12/01 07:32:53;;;;;;;28.92;17.77;;;2.00;99.90;;;;;;4989562;28;20174;-79
2022/12/01 07:35:19;;;;;;;27.33;18.58;;;2.10;99.90;;;;;;4993239;28;20221;-80
2022/12/01 07:37:44;;;;;;;25.92;17.80;;;2.10;99.90;;;;;;4999567;28;20657;-80
2022/12/01 07:40:10;;;;;;;23.33;16.52;;;2.20;99.90;;;;;;4996523;28;20213;-73
2022/12/01 07:42:40;;;;;;;25.00;17.80;;;2.30;99.90;;;;;;5006201;28;20195;-74
2022/12/01 07:45:06;;;;;;;22.98;16.75;;;2.30;99.90;;;;;;5003366;28;20208;-73
2022/12/01 07:47:31;;;;;;;22.30;16.17;;;2.50;99.90;;;;;;5003576;28;20182;-73
2022/12/01 07:49:57;;;;;;;27.23;17.17;;;2.70;99.90;;;;;;4999023;28;20178;-74
2022/12/01 07:52:22;;;;;;;24.23;16.55;;;2.80;99.90;;;;;;4998058;28;20182;-74
2022/12/01 07:54:48;;;;;;;25.48;17.38;;;2.80;99.90;;;;;;4997468;28;20246;-74
2022/12/01 07:57:13;;;;;;;20.80;15.57;;;2.80;99.90;;;;;;4995557;28;20197;-74
2022/12/01 07:59:39;;;;;;;20.52;15.77;;;2.90;99.90;;;;;;4993737;28;20186;-75
2022/12/01 08:02:05;;;;;;;24.85;17.00;;;3.00;99.90;;;;;;4995491;28;20514;-73
2022/12/01 08:04:30;;;;;;;23.42;17.45;;;3.10;99.90;;;;;;4996518;28;20220;-73
2022/12/01 08:06:56;;;;;;;21.15;16.25;;;3.10;99.90;;;;;;4997729;28;20201;-73
2022/12/01 08:09:22;;;;;;;22.02;16.80;;;3.20;99.90;;;;;;5008371;28;20181;-75
2022/12/01 08:11:48;;;;;;;22.85;16.27;;;3.30;99.90;;;;;;5001122;28;20192;-73
2022/12/01 08:14:13;;;;;;;23.60;16.30;;;3.50;99.90;;;;;;4989595;28;20651;-73
2022/12/01 08:16:39;;;;;;;21.52;15.50;;;3.50;99.90;;;;;;5002301;28;20296;-73
2022/12/01 08:19:05;;;;;;;21.23;16.25;;;3.80;99.90;;;;;;4994219;28;20181;-74
2022/12/01 08:21:30;;;;;;;20.25;15.20;;;4.00;99.90;;;;;;4997108;28;20181;-74
2022/12/01 08:23:57;;;;;;;20.90;15.93;;;4.20;99.90;;;;;;5003831;28;20220;-74
2022/12/01 08:26:24;;;;;;;20.02;16.02;;;4.30;99.90;;;;;;4991441;28;20202;-73
2022/12/01 08:28:50;;;;;;;20.00;16.02;;;4.40;99.90;;;;;;4994670;28;20676;-73
2022/12/01 08:31:21;;;;;;;19.48;16.10;;;4.50;99.90;;;;;;4994534;28;20217;-73
2022/12/01 08:33:48;;;;;;;20.25;15.30;;;4.50;99.90;;;;;;4991144;28;20174;-74
2022/12/01 08:36:14;;;;;;;21.27;16.27;;;4.40;99.90;;;;;;4994466;28;20293;-74
2022/12/01 08:38:45;;;;;;;20.63;15.27;;;4.40;99.90;;;;;;4992685;28;20261;-75
2022/12/01 08:41:13;;;;;;;20.33;14.23;;;4.60;99.90;;;;;;4993952;28;20181;-75
2022/12/01 08:43:40;;;;;;;20.52;15.00;;;4.80;99.90;;;;;;4994350;28;20216;-75
2022/12/01 08:46:06;;;;;;;20.13;15.48;;;4.90;99.90;;;;;;5008016;28;20275;-75
2022/12/01 08:48:33;;;;;;;20.02;15.45;;;5.00;99.90;;;;;;4995583;28;20276;-74
2022/12/01 08:51:06;;;;;;;20.70;15.70;;;5.20;99.90;;;;;;4980612;28;20237;-74
2022/12/01 08:53:33;;;;;;;19.60;15.75;;;5.30;99.90;;;;;;4994187;28;20213;-75
2022/12/01 08:56:13;;;;;;;20.02;15.23;;;5.40;99.90;;;;;;4997047;28;20208;-75
2022/12/01 08:58:38;;;;;;;19.42;14.85;;;5.40;99.90;;;;;;4994561;28;20677;-74
2022/12/01 09:01:08;;;;;;;22.70;15.40;;;5.30;99.90;;;;;;4997434;28;20264;-74
2022/12/01 09:03:34;;;;;;;21.08;15.95;;;5.30;99.90;;;;;;4998039;28;20570;-74
2022/12/01 09:06:02;;;;;;;22.35;15.45;;;5.20;99.90;;;;;;4987852;28;20226;-75
2022/12/01 09:08:30;;;;;;;20.08;15.00;;;5.20;99.90;;;;;;4992257;28;20192;-75
2022/12/01 09:10:57;;;;;;;22.67;16.30;;;5.30;99.90;;;;;;4994048;28;20178;-74
2022/12/01 09:13:22;;;;;;;21.00;15.98;;;5.70;99.90;;;;;;4994570;28;20210;-75
2022/12/01 09:16:00;;;;;;;19.23;15.60;;;6.00;99.90;;;;;;4993489;28;20241;-75
2022/12/01 09:18:26;;;;;;;19.52;15.45;;;6.40;99.90;;;;;;4989166;28;20220;-74
2022/12/01 09:20:52;;;;;;;19.23;15.73;;;7.10;99.90;;;;;;5009282;28;20169;-75
2022/12/01 09:23:17;;;;;;;21.88;14.90;;;7.90;99.90;;;;;;4997113;28;20202;-76
2022/12/01 09:25:43;;;;;;;19.23;15.23;;;8.20;99.90;;;;;;4989441;28;20208;-75
2022/12/01 09:28:09;;;;;;;19.83;15.65;;;8.50;99.90;;;;;;4993617;28;20170;-75
2022/12/01 09:30:35;;;;;;;19.20;15.80;;;8.50;99.90;;;;;;4993538;28;20187;-76
2022/12/01 09:33:00;;;;;;;18.50;14.90;;;8.60;99.90;;;;;;4991874;28;20225;-76
2022/12/01 09:35:26;;;;;;;20.30;15.48;;;8.70;99.90;;;;;;4993181;28;20210;-76
2022/12/01 09:37:52;;;;;;;17.10;14.27;;;8.70;99.90;;;;;;4991900;28;20633;-76
2022/12/01 09:40:18;;;;;;;18.77;15.45;;;8.50;99.90;;;;;;4998518;28;20189;-75
2022/12/01 09:42:46;;;;;;;18.27;15.20;;;8.50;99.90;;;;;;4995401;28;20575;-75
2022/12/01 09:45:28;;;;;;;20.23;15.02;;;8.00;99.90;;;;;;4991818;28;20244;-75
2022/12/01 09:47:58;;;;;;;18.10;15.32;;;7.80;99.90;;;;;;4999797;28;20661;-76
2022/12/01 09:50:24;;;;;;;18.70;15.48;;;8.30;99.90;;;;;;4993427;28;20178;-75
2022/12/01 09:52:55;;;;;;;20.00;15.25;;;10.40;99.90;;;;;;4990586;28;20233;-75
2022/12/01 09:55:23;;;;;;;18.08;15.27;;;12.50;99.90;;;;;;4994233;28;20280;-78
2022/12/01 09:57:54;;;;;;;19.75;15.23;;;14.40;99.90;;;;;;4996545;28;20231;-78
2022/12/01 10:00:26;;;;;;;18.02;13.98;;;15.60;97.40;;;;;;5007198;28;20185;-78
2022/12/01 10:03:16;;;;;;;16.20;14.43;;;16.40;95.60;;;;;;4992725;28;20181;-78
2022/12/01 10:05:54;;;;;;;15.68;14.00;;;17.80;89.70;;;;;;4988471;28;20198;-78
2022/12/01 10:08:30;;;;;;;18.15;15.40;;;18.40;82.70;;;;;;4993192;28;20236;-78
2022/12/01 10:11:04;;;;;;;16.02;14.18;;;18.90;78.30;;;;;;4993006;28;20178;-78
2022/12/01 10:13:32;;;;;;;17.60;15.30;;;19.50;76.50;;;;;;4990167;28;20585;-78
2022/12/01 10:16:11;;;;;;;18.40;15.85;;;19.80;71.40;;;;;;4993071;28;20201;-79
2022/12/01 10:19:06;;;;;;;17.38;15.57;;;19.90;70.30;;;;;;4999139;28;20598;-79
2022/12/01 10:22:06;;;;;;;18.33;15.60;;;19.90;67.70;;;;;;4993189;28;20181;-78
2022/12/01 10:25:02;;;;;;;17.42;15.43;;;19.60;68.70;;;;;;4994206;28;20304;-79
2022/12/01 10:27:39;;;;;;;17.05;15.25;;;19.50;67.90;;;;;;4990418;28;20197;-79
2022/12/01 10:30:14;;;;;;;18.83;16.00;;;19.20;69.60;;;;;;4989274;28;20173;-81
2022/12/01 10:32:53;;;;;;;17.73;15.82;;;18.80;72.50;;;;;;4991392;28;20189;-79
2022/12/01 10:35:25;;;;;;;17.58;15.73;;;18.30;70.90;;;;;;4996241;28;20209;-79
2022/12/01 10:37:56;;;;;;;18.17;16.02;;;18.30;71.20;;;;;;4986099;28;20178;-77
2022/12/01 10:40:23;;;;;;;18.90;16.75;;;18.00;71.30;;;;;;4996291;28;20178;-77
2022/12/01 10:42:49;;;;;;;19.77;16.65;;;16.90;72.40;;;;;;4991836;28;20221;-77
2022/12/01 10:45:25;;;;;;;20.52;16.50;;;16.20;77.50;;;;;;4991130;28;20216;-77
2022/12/01 10:48:14;;;;;;;19.55;16.33;;;15.60;78.60;;;;;;4989273;28;20178;-76
2022/12/01 10:50:41;;;;;;;18.85;15.68;;;14.70;80.30;;;;;;4993989;28;20204;-76
2022/12/01 10:53:21;;;;;;;20.67;17.30;;;13.90;83.40;;;;;;4994587;28;20185;-76
2022/12/01 10:55:50;;;;;;;21.98;17.10;;;13.00;84.40;;;;;;4997385;28;20252;-75
2022/12/01 10:58:18;;;;;;;20.58;17.30;;;12.00;89.40;;;;;;4988597;28;20240;-76
2022/12/01 11:00:57;;;;;;;25.70;19.20;;;11.10;90.90;;;;;;4989615;28;20661;-76
2022/12/01 11:03:26;;;;;;;19.15;16.80;;;10.50;93.20;;;;;;4991520;28;20194;-76
2022/12/01 11:05:56;;;;;;;19.00;16.92;;;10.30;94.90;;;;;;4990253;28;20245;-76
2022/12/01 11:08:27;;;;;;;19.55;17.10;;;10.10;95.90;;;;;;4992838;28;20170;-76
2022/12/01 11:10:52;;;;;;;22.85;17.65;;;9.70;97.80;;;;;;4990863;28;20260;-75
2022/12/01 11:13:22;;;;;;;20.27;17.23;;;9.50;99.20;;;;;;4992482;28;20296;-76
2022/12/01 11:15:57;;;;;;;22.27;17.75;;;9.10;99.90;;;;;;5001373;28;20197;-75
2022/12/01 11:18:33;;;;;;;22.02;17.70;;;8.90;99.90;;;;;;4996978;28;20186;-76
2022/12/01 11:21:25;;;;;;;23.45;18.58;;;8.70;99.90;;;;;;5003434;28;20165;-76
2022/12/01 11:23:54;;;;;;;22.88;17.55;;;8.50;99.90;;;;;;4992628;28;20189;-77
2022/12/01 11:26:19;;;;;;;22.17;17.73;;;8.50;99.90;;;;;;4987913;28;20267;-77
2022/12/01 11:28:56;;;;;;;22.42;17.92;;;8.30;99.90;;;;;;4991201;28;20186;-76
2022/12/01 11:31:34;;;;;;;21.60;18.05;;;8.20;99.90;;;;;;4996767;28;20169;-76
2022/12/01 11:34:00;;;;;;;25.58;18.08;;;8.10;99.90;;;;;;4993675;28;20265;-76
2022/12/01 11:36:41;;;;;;;23.75;17.88;;;8.30;99.90;;;;;;4995201;28;20712;-75
2022/12/01 11:39:26;;;;;;;23.98;18.33;;;8.40;99.90;;;;;;4992739;28;20189;-75
2022/12/01 11:41:57;;;;;;;23.35;17.75;;;8.60;99.90;;;;;;4992562;28;20201;-75
2022/12/01 11:44:24;;;;;;;24.23;19.00;;;8.60;99.90;;;;;;4991341;28;20241;-75
2022/12/01 11:46:49;;;;;;;23.95;18.13;;;8.40;99.90;;;;;;4990329;28;20193;-75
2022/12/01 11:49:18;;;;;;;21.40;17.02;;;8.20;99.90;;;;;;5002026;28;20273;-75
2022/12/01 11:51:44;;;;;;;23.02;18.48;;;8.10;99.90;;;;;;4990919;28;20170;-75
2022/12/01 11:54:21;;;;;;;22.98;18.13;;;7.80;99.90;;;;;;4992717;28;20201;-75
2022/12/01 11:56:48;;;;;;;27.02;18.27;;;7.60;99.90;;;;;;4990846;28;20201;-75
2022/12/01 11:59:24;;;;;;;24.90;17.63;;;7.60;99.90;;;;;;4991339;28;20184;-76
2022/12/01 12:02:02;;;;;;;22.45;18.27;;;7.70;99.90;;;;;;4996759;28;20180;-76
2022/12/01 12:04:42;;;;;;;29.40;19.38;;;7.80;99.90;;;;;;4987884;28;20202;-75
2022/12/01 12:07:52;;;;;;;23.02;17.65;;;7.70;99.90;;;;;;4990371;28;20248;-75
2022/12/01 12:10:40;;;;;;;26.55;18.92;;;7.60;99.90;;;;;;4993787;28;20197;-75
2022/12/01 12:13:15;;;;;;;25.52;19.17;;;7.60;99.90;;;;;;4996181;28;20207;-75
2022/12/01 12:15:55;;;;;;;22.35;18.48;;;7.60;99.90;;;;;;5001472;28;20211;-75
2022/12/01 12:19:00;;;;;;;24.20;18.70;;;7.60;99.90;;;;;;4998018;28;20192;-75
2022/12/01 12:22:04;;;;;;;28.30;20.77;;;7.40;99.90;;;;;;4989685;28;20261;-75
2022/12/01 12:24:56;;;;;;;26.67;19.65;;;7.20;99.90;;;;;;4998073;28;20208;-75
2022/12/01 12:27:54;;;;;;;23.35;18.88;;;7.10;99.90;;;;;;4991478;28;20288;-75
2022/12/01 12:30:29;;;;;;;28.38;19.92;;;7.00;99.90;;;;;;4987085;28;20224;-75
2022/12/01 12:33:30;;;;;;;24.75;19.10;;;6.90;99.90;;;;;;4985934;28;20724;-75
2022/12/01 12:36:05;;;;;;;22.33;18.33;;;7.00;99.90;;;;;;4996814;28;20254;-74
2022/12/01 12:38:46;;;;;;;27.13;19.80;;;7.10;99.90;;;;;;4992439;28;20592;-75
2022/12/01 12:41:23;;;;;;;25.20;20.02;;;7.10;99.90;;;;;;4994333;28;20170;-75
2022/12/01 12:44:24;;;;;;;23.58;18.52;;;7.10;99.90;;;;;;4990680;28;20664;-77
2022/12/01 12:46:59;;;;;;;22.55;18.33;;;7.10;99.90;;;;;;4992390;28;20193;-75
2022/12/01 12:49:35;;;;;;;24.27;18.35;;;7.10;99.90;;;;;;4995190;28;20213;-76
2022/12/01 12:52:06;;;;;;;24.55;18.48;;;7.10;99.90;;;;;;4994552;28;20521;-76
2022/12/01 12:54:31;;;;;;;22.75;18.50;;;7.00;99.90;;;;;;4984351;28;20196;-76
2022/12/01 12:57:03;;;;;;;27.77;18.55;;;6.80;99.90;;;;;;4991304;28;20696;-75
2022/12/01 12:59:47;;;;;;;24.05;17.38;;;6.80;99.90;;;;;;4989803;28;20185;-76